createdAt,value
2022-08-18T00:01:59.553Z,100980.13
2022-08-18T00:04:35.640Z,100983.56
2022-08-18T00:07:03.734Z,100983.56
2022-08-18T00:09:32.532Z,100985.03
2022-08-18T00:12:02.936Z,100975.13
2022-08-18T00:14:29.456Z,100969.69
2022-08-18T00:16:56.025Z,100970.47
2022-08-18T00:19:45.485Z,100974.16
2022-08-18T00:22:14.867Z,100977.84
2022-08-18T00:24:48.393Z,100993.13
2022-08-18T00:27:18.748Z,100994.59
2022-08-18T00:29:45.382Z,100998.78
2022-08-18T00:32:17.485Z,100993.81
2022-08-18T00:34:44.531Z,100991.34
2022-08-18T00:37:10.985Z,100990.16
2022-08-18T00:39:38.849Z,100998.72
2022-08-18T00:42:31.282Z,100996.22
2022-08-18T00:45:01.107Z,100987.81
2022-08-18T00:47:37.086Z,100996.75
2022-08-18T00:50:15.169Z,101009.53
2022-08-18T00:52:44.091Z,101007.34
2022-08-18T00:55:11.867Z,101008.53
2022-08-18T00:57:38.903Z,101000.63
2022-08-18T01:00:11.542Z,101009.75
2022-08-18T01:06:28.641Z,101015.19
2022-08-18T01:08:55.968Z,101010.69
2022-08-18T01:11:22.644Z,101010.16
2022-08-18T01:13:49.330Z,101013.81
2022-08-18T01:16:34.672Z,101010.38
2022-08-18T01:19:19.745Z,101013.28
2022-08-18T01:21:53.339Z,101016.75
2022-08-18T01:24:49.627Z,101016.00
2022-08-18T01:27:18.381Z,101025.56
2022-08-18T01:29:47.069Z,101027.03
2022-08-18T01:32:19.725Z,101031.06
2022-08-18T01:34:51.238Z,101023.44
2022-08-18T01:37:21.813Z,101020.19
2022-08-18T01:41:23.806Z,101022.97
2022-08-18T01:42:36.190Z,101026.00
2022-08-18T01:45:04.671Z,101022.84
2022-08-18T01:47:33.029Z,101016.69
2022-08-18T01:50:15.079Z,101020.63
2022-08-18T01:52:41.520Z,101021.38
2022-08-18T01:55:08.286Z,101029.34
2022-08-18T01:57:43.134Z,101026.63
2022-08-18T02:00:12.612Z,101015.72
2022-08-18T02:02:39.862Z,101015.72
2022-08-18T02:05:11.365Z,101014.72
2022-08-18T02:07:38.226Z,101010.44
2022-08-18T02:10:11.842Z,101008.75
2022-08-18T02:12:40.517Z,101001.56
2022-08-18T02:15:07.982Z,101006.47
2022-08-18T02:17:42.947Z,101004.75
2022-08-18T02:20:12.205Z,101003.03
2022-08-18T02:22:40.662Z,101005.03
2022-08-18T02:25:08.098Z,101008.44
2022-08-18T02:27:35.225Z,101009.94
2022-08-18T02:30:04.229Z,101005.41
2022-08-18T02:32:32.063Z,101010.38
2022-08-18T02:34:58.582Z,101010.00
2022-08-18T02:37:25.022Z,101007.22
2022-08-18T02:39:51.555Z,101000.56
2022-08-18T02:42:18.239Z,101007.22
2022-08-18T02:44:45.054Z,101021.66
2022-08-18T02:47:11.744Z,101014.53
2022-08-18T02:49:38.177Z,101003.16
2022-08-18T02:52:04.702Z,101001.66
2022-08-18T02:54:31.138Z,101007.56
2022-08-18T02:56:57.853Z,101009.09
2022-08-18T02:59:27.451Z,101005.13
2022-08-18T03:01:55.917Z,101003.22
2022-08-18T03:04:29.546Z,101006.16
2022-08-18T03:06:59.390Z,101010.09
2022-08-18T03:09:26.169Z,101006.66
2022-08-18T03:11:53.481Z,101003.72
2022-08-18T03:14:20.402Z,101007.63
2022-08-18T03:16:54.698Z,100996.00
2022-08-18T03:19:26.138Z,101007.91
2022-08-18T03:21:53.217Z,101009.38
2022-08-18T03:24:22.385Z,101009.16
2022-08-18T03:26:51.022Z,101012.84
2022-08-18T03:29:17.481Z,101016.34
2022-08-18T03:31:44.513Z,101009.69
2022-08-18T03:34:11.851Z,101013.31
2022-08-18T03:36:38.500Z,101022.25
2022-08-18T03:39:07.091Z,101023.94
2022-08-18T03:41:57.655Z,101031.28
2022-08-18T03:44:21.839Z,101029.06
2022-08-18T03:46:49.002Z,101021.41
2022-08-18T03:49:15.469Z,101029.34
2022-08-18T03:51:46.562Z,101021.38
2022-08-18T03:54:13.839Z,101017.41
2022-08-18T03:56:41.439Z,101020.78
2022-08-18T03:59:11.371Z,101016.84
2022-08-18T04:01:41.048Z,101016.03
2022-08-18T04:04:10.190Z,101024.91
2022-08-18T04:06:40.835Z,101013.38
2022-08-18T04:09:09.416Z,101021.13
2022-08-18T04:11:37.551Z,101016.91
2022-08-18T04:14:05.404Z,101022.94
2022-08-18T04:16:33.185Z,101015.72
2022-08-18T04:19:04.013Z,101026.34
2022-08-18T04:21:32.855Z,101026.91
2022-08-18T04:24:04.914Z,101035.03
2022-08-18T04:26:32.776Z,101029.59
2022-08-18T04:29:01.167Z,101029.88
2022-08-18T04:31:28.003Z,101034.31
2022-08-18T04:33:55.299Z,101024.50
2022-08-18T04:36:22.029Z,101023.47
2022-08-18T04:38:48.549Z,101020.78
2022-08-18T04:41:14.987Z,101029.88
2022-08-18T04:43:42.121Z,101030.16
2022-08-18T04:46:08.892Z,101035.63
2022-08-18T04:48:39.969Z,101035.41
2022-08-18T04:51:12.549Z,101033.16
2022-08-18T04:54:00.828Z,101042.06
2022-08-18T04:56:38.795Z,101028.00
2022-08-18T04:59:11.390Z,101033.19
2022-08-18T05:01:45.231Z,101041.34
2022-08-18T05:04:13.599Z,101039.06
2022-08-18T05:06:40.712Z,101041.34
2022-08-18T05:09:08.927Z,101046.22
2022-08-18T05:11:36.596Z,101036.63
2022-08-18T05:14:06.159Z,101036.38
2022-08-18T05:16:35.912Z,101032.63
2022-08-18T05:19:04.549Z,101032.88
2022-08-18T05:21:37.347Z,101033.38
2022-08-18T05:24:05.629Z,101034.63
2022-08-18T05:26:32.316Z,101046.53
2022-08-18T05:29:04.150Z,101040.38
2022-08-18T05:31:45.668Z,101050.03
2022-08-18T05:34:12.110Z,101055.47
2022-08-18T05:36:51.110Z,101048.78
2022-08-18T05:39:26.297Z,101061.59
2022-08-18T05:42:05.997Z,101062.59
2022-08-18T05:44:37.666Z,101060.38
2022-08-18T05:47:07.605Z,101074.72
2022-08-18T05:49:35.534Z,101070.75
2022-08-18T05:52:07.755Z,101073.22
2022-08-18T05:54:58.446Z,101070.03
2022-08-18T05:57:28.079Z,101070.75
2022-08-18T05:59:54.931Z,101065.09
2022-08-18T06:02:33.057Z,101065.88
2022-08-18T06:05:03.812Z,101071.09
2022-08-18T06:07:35.540Z,101069.34
2022-08-18T06:10:02.747Z,101072.56
2022-08-18T06:12:41.130Z,101077.97
2022-08-18T06:15:18.122Z,101086.16
2022-08-18T06:17:47.567Z,101087.81
2022-08-18T06:20:45.930Z,101088.34
2022-08-18T06:23:40.450Z,101086.09
2022-08-18T06:26:24.229Z,101084.63
2022-08-18T06:29:00.873Z,101094.25
2022-08-18T06:31:31.144Z,101096.25
2022-08-18T06:34:15.859Z,101097.22
2022-08-18T06:36:53.318Z,101089.81
2022-08-18T06:39:36.446Z,101095.50
2022-08-18T06:42:05.894Z,101105.66
2022-08-18T06:44:36.752Z,101095.94
2022-08-18T06:47:21.399Z,101100.84
2022-08-18T06:49:56.106Z,101100.72
2022-08-18T06:52:32.053Z,101107.03
2022-08-18T06:55:02.823Z,101108.56
2022-08-18T06:57:34.466Z,101108.13
2022-08-18T07:00:22.173Z,101105.22
2022-08-18T07:03:01.389Z,101105.78
2022-08-18T07:05:30.712Z,101116.03
2022-08-18T07:08:12.978Z,101108.41
2022-08-18T07:10:49.034Z,101117.47
2022-08-18T07:13:18.941Z,101114.19
2022-08-18T07:15:45.747Z,101117.13
2022-08-18T07:18:13.229Z,101117.03
2022-08-18T07:20:46.311Z,101117.16
2022-08-18T07:23:27.508Z,101122.25
2022-08-18T07:26:15.191Z,101129.53
2022-08-18T07:28:44.954Z,101127.41
2022-08-18T07:31:20.402Z,101126.91
2022-08-18T07:33:52.413Z,101120.09
2022-08-18T07:36:21.553Z,101131.06
2022-08-18T07:38:58.817Z,101129.25
2022-08-18T07:41:43.052Z,101129.34
2022-08-18T07:44:21.790Z,101129.03
2022-08-18T07:47:00.664Z,101132.59
2022-08-18T07:49:32.803Z,101134.50
2022-08-18T07:52:13.084Z,101143.41
2022-08-18T07:55:01.950Z,101137.03
2022-08-18T07:58:03.613Z,101142.44
2022-08-18T08:00:57.640Z,101144.16
2022-08-18T08:03:32.142Z,101153.34
2022-08-18T08:06:09.940Z,101163.16
2022-08-18T08:08:44.745Z,101160.91
2022-08-18T08:11:44.601Z,101163.91
2022-08-18T08:14:26.131Z,101164.31
2022-08-18T08:17:26.745Z,101170.41
2022-08-18T08:20:09.350Z,101171.09
2022-08-18T08:22:58.263Z,101162.50
2022-08-18T08:25:56.657Z,101160.53
2022-08-18T08:28:43.039Z,101169.84
2022-08-18T08:31:38.418Z,101172.47
2022-08-18T08:34:43.017Z,101175.00
2022-08-18T08:37:15.823Z,101168.22
2022-08-18T08:39:50.924Z,101177.69
2022-08-18T08:42:30.244Z,101168.13
2022-08-18T08:45:09.813Z,101176.31
2022-08-18T08:48:18.245Z,101172.91
2022-08-18T08:50:57.317Z,101171.47
2022-08-18T08:53:44.664Z,101167.44
2022-08-18T08:56:17.031Z,101166.63
2022-08-18T08:58:50.371Z,101182.78
2022-08-18T09:01:27.071Z,101178.88
2022-08-18T09:04:16.601Z,101176.88
2022-08-18T09:07:12.820Z,101172.00
2022-08-18T09:09:58.006Z,101168.25
2022-08-18T09:12:36.403Z,101174.81
2022-08-18T09:15:08.754Z,101173.16
2022-08-18T09:17:50.827Z,101170.00
2022-08-18T09:20:36.631Z,101178.78
2022-08-18T09:23:28.340Z,101175.84
2022-08-18T09:26:00.242Z,101169.03
2022-08-18T09:28:29.687Z,101170.13
2022-08-18T09:31:02.367Z,101167.72
2022-08-18T09:33:40.910Z,101175.94
2022-08-18T09:39:54.792Z,101182.63
2022-08-18T09:42:32.828Z,101184.34
2022-08-18T09:46:04.359Z,101176.13
2022-08-18T09:51:39.972Z,101172.22
2022-08-18T09:54:13.482Z,101178.56
2022-08-18T09:57:09.209Z,101181.31
2022-08-18T09:59:36.504Z,101179.50
2022-08-18T10:02:17.727Z,101176.31
2022-08-18T10:04:51.316Z,101173.38
2022-08-18T10:07:43.424Z,101170.28
2022-08-18T10:11:00.373Z,101174.22
2022-08-18T10:13:25.167Z,101179.53
2022-08-18T10:16:15.880Z,101175.22
2022-08-18T10:19:01.682Z,101179.44
2022-08-18T10:21:31.504Z,101162.25
2022-08-18T10:24:35.129Z,101161.63
2022-08-18T10:27:04.597Z,101159.47
2022-08-18T10:29:31.937Z,101167.47
2022-08-18T10:32:01.383Z,101165.38
2022-08-18T10:37:43.420Z,101165.09
2022-08-18T10:40:10.037Z,101158.53
2022-08-18T10:42:49.512Z,101156.69
2022-08-18T10:45:22.103Z,101154.84
2022-08-18T10:51:21.569Z,101157.88
2022-08-18T10:54:03.178Z,101158.63
2022-08-18T10:56:43.784Z,101163.59
2022-08-18T10:59:47.773Z,101157.97
2022-08-18T11:02:23.456Z,101165.91
2022-08-18T11:04:58.910Z,101165.91
2022-08-18T11:07:29.258Z,101162.72
2022-08-18T11:10:27.960Z,101167.69
2022-08-18T11:15:58.949Z,101169.28
2022-08-18T11:18:42.940Z,101169.94
2022-08-18T11:21:32.049Z,101186.69
2022-08-18T11:24:02.491Z,101193.53
2022-08-18T11:26:34.934Z,101188.22
2022-08-18T11:29:16.561Z,101189.84
2022-08-18T11:31:43.267Z,101189.00
2022-08-18T11:34:24.887Z,101190.06
2022-08-18T11:37:26.962Z,101189.13
2022-08-18T11:39:56.488Z,101184.41
2022-08-18T11:42:35.487Z,101177.97
2022-08-18T11:45:19.903Z,101172.59
2022-08-18T11:48:09.459Z,101172.66
2022-08-18T11:50:56.918Z,101178.00
2022-08-18T11:53:32.428Z,101176.84
2022-08-18T11:56:14.324Z,101177.19
2022-08-18T11:58:50.465Z,101181.78
2022-08-18T12:01:42.017Z,101178.31
2022-08-18T12:04:37.675Z,101181.56
2022-08-18T12:07:10.096Z,101186.03
2022-08-18T12:10:16.537Z,101183.28
2022-08-18T12:12:49.460Z,101174.63
2022-08-18T12:15:23.933Z,101180.72
2022-08-18T12:17:52.956Z,101174.81
2022-08-18T12:20:20.671Z,101176.72
2022-08-18T12:22:49.238Z,101177.16
2022-08-18T12:25:25.024Z,101172.03
2022-08-18T12:27:55.058Z,101169.56
2022-08-18T12:30:21.583Z,101173.16
2022-08-18T12:32:50.890Z,101166.34
2022-08-18T12:35:22.942Z,101162.31
2022-08-18T12:40:38.066Z,101159.06
2022-08-18T12:43:05.727Z,101156.63
2022-08-18T12:45:32.717Z,101153.66
2022-08-18T12:48:04.407Z,101153.56
2022-08-18T12:50:36.201Z,101153.34
2022-08-18T12:53:05.942Z,101147.88
2022-08-18T12:55:35.642Z,101154.41
2022-08-18T12:58:05.255Z,101154.81
2022-08-18T13:00:31.954Z,101159.53
2022-08-18T13:02:59.247Z,101169.13
2022-08-18T13:05:29.820Z,101166.91
2022-08-18T13:07:58.724Z,101172.91
2022-08-18T13:10:43.226Z,101164.31
2022-08-18T13:13:12.294Z,101165.13
2022-08-18T13:15:38.914Z,101170.06
2022-08-18T13:18:14.190Z,101175.22
2022-08-18T13:20:42.275Z,101167.31
2022-08-18T13:23:12.002Z,101151.81
2022-08-18T13:25:39.752Z,101143.84
2022-08-18T13:28:06.782Z,101139.53
2022-08-18T13:30:33.379Z,101144.22
2022-08-18T13:33:05.968Z,101143.25
2022-08-18T13:35:54.249Z,101138.38
2022-08-18T13:38:27.492Z,101125.56
2022-08-18T13:40:57.637Z,101139.22
2022-08-18T13:43:31.063Z,101140.50
2022-08-18T13:45:58.217Z,101140.97
2022-08-18T13:48:25.649Z,101167.28
2022-08-18T13:50:58.178Z,101155.38
2022-08-18T13:53:27.620Z,101157.25
2022-08-18T13:55:54.769Z,101145.53
2022-08-18T13:58:21.403Z,101145.66
2022-08-18T14:00:53.854Z,101146.94
2022-08-18T14:03:42.901Z,101142.72
2022-08-18T14:06:11.570Z,101150.75
2022-08-18T14:08:39.611Z,101152.53
2022-08-18T14:11:06.867Z,101155.69
2022-08-18T14:13:38.319Z,101164.31
2022-08-18T14:16:10.967Z,101172.16
2022-08-18T14:18:42.743Z,101181.97
2022-08-18T14:21:44.581Z,101179.69
2022-08-18T14:24:30.733Z,101187.69
2022-08-18T14:27:03.199Z,101193.06
2022-08-18T14:29:46.391Z,101186.19
2022-08-18T14:32:18.208Z,101182.69
2022-08-18T14:35:01.072Z,101182.41
2022-08-18T14:37:46.514Z,101190.69
2022-08-18T14:40:15.713Z,101169.84
2022-08-18T14:42:54.336Z,101174.31
2022-08-18T14:45:31.564Z,101168.53
2022-08-18T14:48:06.758Z,101170.75
2022-08-18T14:50:37.792Z,101182.97
2022-08-18T14:53:05.436Z,101193.91
2022-08-18T14:55:32.312Z,101188.66
2022-08-18T14:58:00.805Z,101202.66
2022-08-18T15:00:29.483Z,101197.81
2022-08-18T15:02:59.543Z,101191.19
2022-08-18T15:05:30.776Z,101190.03
2022-08-18T15:07:58.805Z,101192.78
2022-08-18T15:10:27.928Z,101186.22
2022-08-18T15:12:55.347Z,101189.81
2022-08-18T15:15:22.524Z,101186.16
2022-08-18T15:17:52.823Z,101176.41
2022-08-18T15:20:24.045Z,101176.13
2022-08-18T15:23:14.145Z,101172.03
2022-08-18T15:25:44.964Z,101159.03
2022-08-18T15:28:19.929Z,101173.13
2022-08-18T15:30:51.351Z,101170.56
2022-08-18T15:33:23.538Z,101173.97
2022-08-18T15:35:54.044Z,101165.94
2022-08-18T15:38:22.382Z,101172.00
2022-08-18T15:40:57.274Z,101160.78
2022-08-18T15:43:25.373Z,101167.47
2022-08-18T15:45:57.807Z,101170.72
2022-08-18T15:48:26.476Z,101167.19
2022-08-18T15:50:53.376Z,101169.97
2022-08-18T15:53:22.609Z,101169.13
2022-08-18T15:55:50.076Z,101166.75
2022-08-18T15:58:22.032Z,101161.13
2022-08-18T16:00:50.629Z,101157.69
2022-08-18T16:03:17.584Z,101156.75
2022-08-18T16:05:53.182Z,101154.22
2022-08-18T16:08:22.007Z,101153.22
2022-08-18T16:10:48.783Z,101173.09
2022-08-18T16:13:15.244Z,101166.84
2022-08-18T16:15:46.596Z,101153.22
2022-08-18T16:18:14.432Z,101160.72
2022-08-18T16:20:41.578Z,101153.31
2022-08-18T16:23:08.733Z,101162.97
2022-08-18T16:25:38.113Z,101162.31
2022-08-18T16:28:05.072Z,101159.03
2022-08-18T16:30:33.324Z,101168.47
2022-08-18T16:33:03.505Z,101160.97
2022-08-18T16:35:31.170Z,101173.72
2022-08-18T16:38:05.947Z,101162.03
2022-08-18T16:40:32.510Z,101166.31
2022-08-18T16:43:00.538Z,101169.38
2022-08-18T16:45:28.233Z,101173.50
2022-08-18T16:47:56.133Z,101176.94
2022-08-18T16:50:24.892Z,101176.25
2022-08-18T16:52:51.589Z,101183.50
2022-08-18T16:55:21.001Z,101181.22
2022-08-18T16:58:06.096Z,101183.28
2022-08-18T17:00:55.240Z,101182.81
2022-08-18T17:03:42.715Z,101167.94
2022-08-18T17:06:12.715Z,101176.59
2022-08-18T17:08:40.305Z,101176.34
2022-08-18T17:11:09.666Z,101184.81
2022-08-18T17:13:37.303Z,101187.03
2022-08-18T17:16:04.235Z,101182.81
2022-08-18T17:18:30.837Z,101189.75
2022-08-18T17:21:02.185Z,101192.69
2022-08-18T17:23:28.675Z,101183.06
2022-08-18T17:25:55.892Z,101190.03
2022-08-18T17:28:26.401Z,101192.75
2022-08-18T17:30:53.208Z,101184.56
2022-08-18T17:33:24.539Z,101194.47
2022-08-18T17:35:54.082Z,101191.25
2022-08-18T17:38:36.190Z,101199.44
2022-08-18T17:41:03.523Z,101194.25
2022-08-18T17:43:35.655Z,101199.69
2022-08-18T17:46:06.848Z,101196.72
2022-08-18T17:48:33.200Z,101195.22
2022-08-18T17:51:27.348Z,101199.19
2022-08-18T17:53:53.958Z,101195.69
2022-08-18T17:56:35.145Z,101190.28
2022-08-18T17:59:45.971Z,101188.78
2022-08-18T18:02:28.598Z,101179.34
2022-08-18T18:05:07.372Z,101185.25
2022-08-18T18:07:52.194Z,101190.09
2022-08-18T18:10:37.697Z,101188.59
2022-08-18T18:13:23.771Z,101192.22
2022-08-18T18:15:53.690Z,101189.75
2022-08-18T18:18:42.951Z,101190.47
2022-08-18T18:21:15.371Z,101195.34
2022-08-18T18:23:50.592Z,101192.69
2022-08-18T18:26:19.963Z,101198.56
2022-08-18T18:28:46.610Z,101192.34
2022-08-18T18:31:33.267Z,101183.53
2022-08-18T18:34:03.926Z,101186.94
2022-08-18T18:36:44.065Z,101196.47
2022-08-18T18:39:14.708Z,101193.75
2022-08-18T18:41:41.166Z,101185.75
2022-08-18T18:44:13.359Z,101187.28
2022-08-18T18:46:51.054Z,101182.88
2022-08-18T18:49:26.543Z,101189.19
2022-08-18T18:52:11.608Z,101189.78
2022-08-18T18:55:06.406Z,101192.78
2022-08-18T18:58:07.894Z,101185.53
2022-08-18T19:00:53.446Z,101195.94
2022-08-18T19:03:33.669Z,101202.00
2022-08-18T19:06:18.984Z,101204.44
2022-08-18T19:08:59.536Z,101211.75
2022-08-18T19:11:53.637Z,101218.50
2022-08-18T19:14:26.432Z,101219.34
2022-08-18T19:16:57.080Z,101213.63
2022-08-18T19:19:36.947Z,101213.31
2022-08-18T19:22:18.980Z,101213.91
2022-08-18T19:24:52.964Z,101215.50
2022-08-18T19:27:25.648Z,101210.94
2022-08-18T19:29:55.552Z,101208.28
2022-08-18T19:32:27.598Z,101226.88
2022-08-18T19:34:55.887Z,101217.19
2022-08-18T19:37:46.660Z,101214.75
2022-08-18T19:40:19.969Z,101224.63
2022-08-18T19:43:29.805Z,101214.13
2022-08-18T19:46:05.674Z,101220.69
2022-08-18T19:48:42.045Z,101219.34
2022-08-18T19:51:15.601Z,101228.97
2022-08-18T19:54:04.495Z,101226.13
2022-08-18T19:56:57.368Z,101227.50
2022-08-18T19:59:35.056Z,101223.44
2022-08-18T20:02:26.567Z,101219.38
2022-08-18T20:05:21.131Z,101225.19
2022-08-18T20:07:54.808Z,101213.47
2022-08-18T20:11:09.163Z,101202.22
2022-08-18T20:13:42.891Z,101209.91
2022-08-18T20:16:25.062Z,101198.78
2022-08-18T20:19:01.418Z,101209.91
2022-08-18T20:21:45.645Z,101205.41
2022-08-18T20:24:38.324Z,101204.59
2022-08-18T20:27:27.212Z,101205.69
2022-08-18T20:30:22.251Z,101204.25
2022-08-18T20:33:24.138Z,101207.25
2022-08-18T20:36:00.224Z,101212.03
2022-08-18T20:38:40.661Z,101214.75
2022-08-18T20:41:27.590Z,101216.47
2022-08-18T20:43:58.444Z,101208.38
2022-08-18T20:46:46.246Z,101208.81
2022-08-18T20:49:40.588Z,101208.88
2022-08-18T20:52:46.056Z,101211.25
2022-08-18T20:55:23.730Z,101208.31
2022-08-18T20:57:55.370Z,101215.25
2022-08-18T21:00:27.366Z,101216.25
2022-08-18T21:02:59.349Z,101213.53
2022-08-18T21:05:28.726Z,101208.66
2022-08-18T21:08:03.296Z,101204.75
2022-08-18T21:10:31.082Z,101202.16
2022-08-18T21:13:01.281Z,101197.94
2022-08-18T21:15:30.747Z,101206.06
2022-08-18T21:18:03.262Z,101204.31
2022-08-18T21:20:31.432Z,101208.09
2022-08-18T21:23:07.605Z,101209.63
2022-08-18T21:25:34.431Z,101214.44
2022-08-18T21:28:02.303Z,101210.69
2022-08-18T21:30:28.931Z,101211.78
2022-08-18T21:32:55.419Z,101210.56
2022-08-18T21:35:33.796Z,101216.50
2022-08-18T21:38:12.284Z,101224.63
2022-08-18T21:40:43.480Z,101214.72
2022-08-18T21:43:11.231Z,101226.09
2022-08-18T21:45:47.484Z,101216.91
2022-08-18T21:48:14.466Z,101215.88
2022-08-18T21:50:49.641Z,101214.69
2022-08-18T21:53:20.084Z,101222.88
2022-08-18T21:55:51.755Z,101225.19
2022-08-18T21:58:33.660Z,101224.06
2022-08-18T22:01:09.976Z,101227.47
2022-08-18T22:03:56.232Z,101225.59
2022-08-18T22:06:40.202Z,101222.28
2022-08-18T22:09:28.264Z,101232.06
2022-08-18T22:12:47.292Z,101229.91
2022-08-18T22:15:21.068Z,101224.75
2022-08-18T22:17:59.813Z,101223.28
2022-08-18T22:20:38.458Z,101223.88
2022-08-18T22:23:32.625Z,101214.72
2022-08-18T22:26:16.603Z,101217.59
2022-08-18T22:28:50.113Z,101210.94
2022-08-18T22:31:20.902Z,101218.91
2022-08-18T22:33:47.776Z,101208.50
2022-08-18T22:36:17.373Z,101211.50
2022-08-18T22:38:44.666Z,101212.59
2022-08-18T22:41:11.428Z,101215.44
2022-08-18T22:43:37.907Z,101216.91
2022-08-18T22:46:04.351Z,101223.03
2022-08-18T22:48:30.899Z,101224.38
2022-08-18T22:50:57.384Z,101225.88
2022-08-18T22:53:23.916Z,101228.06
2022-08-18T22:55:51.824Z,101216.28
2022-08-18T22:58:22.122Z,101225.00
2022-08-18T23:01:00.985Z,101223.72
2022-08-18T23:03:32.010Z,101224.00
2022-08-18T23:06:04.261Z,101229.69
2022-08-18T23:08:37.833Z,101232.59
2022-08-18T23:11:17.101Z,101237.28
2022-08-18T23:13:43.567Z,101235.59
2022-08-18T23:16:30.921Z,101238.56
2022-08-18T23:18:56.448Z,101229.94
2022-08-18T23:21:34.221Z,101233.72
2022-08-18T23:24:01.582Z,101243.63
2022-08-18T23:26:29.592Z,101236.03
2022-08-18T23:28:57.170Z,101234.94
2022-08-18T23:31:23.664Z,101236.44
2022-08-18T23:33:50.114Z,101234.84
2022-08-18T23:36:17.754Z,101235.16
2022-08-18T23:38:44.666Z,101238.63
2022-08-18T23:41:13.150Z,101227.44
2022-08-18T23:43:39.911Z,101225.06
2022-08-18T23:46:18.647Z,101215.72
2022-08-18T23:48:49.719Z,101217.59
2022-08-18T23:51:29.195Z,101207.50
2022-08-18T23:54:00.371Z,101210.66
2022-08-18T23:56:31.350Z,101206.38
2022-08-18T23:58:58.124Z,101201.63
